X  Tanca Dades meteorològiques de l'aviació METAR        LGTS Thessaloniki Macedonia International
Temperatura
13°C Temperatura
13°C Rosada
100% Humitat



Vent
2 MPH
4 KM/H
1 M/S
2 NUS



-1°
VRB
Condicions actuals

Mostly Cloudy with Light Rain Força ennuvolat , llum Pluja
Pressió 1011 (hPa) - 29.85 (inHg)
Visibilitat 5 (milla) - 8 (km)
Aeroport
Codi aeroport LGTS

Ubicació: Thessaloniki Macedonia International
Distància: 85 (mi)

Metar:
METAR LGTS 011650Z VRB02KT 8000 -RA SCT008 BKN030 13/13 Q1011 NOSIG

Temps: 01-03-2024 18:50 EET